Terminal Aerodrome Forecast
Issued by NWS Greer, SC

Home | Current Version | Previous Version | Text Only | Print | Product List | Glossary On
Versions: 1 2 3 4 5 6 7 8 9 10 11 12 13 14 15 16 17 18 19 20 21 22 23 24 25
000
FTUS42 KGSP 172300
TAFGSP
TAF
KGSP 172333Z 1800/1824 08005KT P6SM SKC
     FM180200 03004KT P6SM BKN045
     FM180500 02003KT 5SM BR BKN015
     FM181000 36004KT 5SM BR BKN009
     FM181300 02004KT P6SM BKN013
     FM181500 04005KT P6SM BKN045
     FM181800 05004KT P6SM SCT050=

USA.gov is the U.S. government's official web portal to all federal, state and local government web resources and services.